createdAt,value
2023-05-06T00:00:03.897Z,0.000000
2023-05-06T00:01:00.947Z,0.000000
2023-05-06T00:02:01.030Z,0.000000
2023-05-06T00:03:01.057Z,0.000000
2023-05-06T00:04:01.203Z,0.000000
2023-05-06T00:05:03.326Z,0.000000
2023-05-06T00:06:01.057Z,0.000000
2023-05-06T00:07:00.984Z,0.000000
2023-05-06T00:08:01.059Z,0.000000
2023-05-06T00:09:01.023Z,0.000000
2023-05-06T00:10:03.931Z,0.000000
2023-05-06T00:11:00.997Z,0.000000
2023-05-06T00:12:01.126Z,0.000000
2023-05-06T00:13:01.110Z,0.000000
2023-05-06T00:14:01.090Z,0.000000
2023-05-06T00:15:03.536Z,0.000000
2023-05-06T00:16:01.152Z,0.000000
2023-05-06T00:17:01.071Z,0.000000
2023-05-06T00:18:01.207Z,0.000000
2023-05-06T00:19:01.056Z,0.000000
2023-05-06T00:20:04.147Z,0.000000
2023-05-06T00:21:01.089Z,0.000000
2023-05-06T00:22:01.155Z,0.000000
2023-05-06T00:23:01.084Z,0.000000
2023-05-06T00:24:01.176Z,0.000000
2023-05-06T00:25:03.502Z,0.000000
2023-05-06T00:26:01.225Z,0.000000
2023-05-06T00:27:01.114Z,0.000000
2023-05-06T00:28:01.234Z,0.000000
2023-05-06T00:29:01.129Z,0.000000
2023-05-06T00:30:04.234Z,0.000000
2023-05-06T00:31:01.149Z,0.000000
2023-05-06T00:32:01.246Z,0.000000
2023-05-06T00:33:01.193Z,0.000000
2023-05-06T00:34:01.242Z,0.000000
2023-05-06T00:35:03.982Z,0.000000
2023-05-06T00:36:01.240Z,0.000000
2023-05-06T00:37:01.150Z,0.000000
2023-05-06T00:38:01.256Z,0.000000
2023-05-06T00:39:01.184Z,0.000000
2023-05-06T00:40:03.119Z,0.000000
2023-05-06T00:41:00.167Z,0.000000
2023-05-06T00:42:00.257Z,0.000000
2023-05-06T00:43:00.194Z,0.000000
2023-05-06T00:44:00.258Z,0.000000
2023-05-06T00:45:03.620Z,0.000000
2023-05-06T00:46:00.322Z,0.000000
2023-05-06T00:47:00.218Z,0.000000
2023-05-06T00:48:00.330Z,0.000000
2023-05-06T00:49:00.214Z,0.000000
2023-05-06T00:50:02.984Z,0.000000
2023-05-06T00:51:00.279Z,0.000000
2023-05-06T00:52:00.331Z,0.000000
2023-05-06T00:53:00.247Z,0.000000
2023-05-06T00:54:00.339Z,0.000000
2023-05-06T00:55:03.241Z,0.000000
2023-05-06T00:56:00.352Z,0.000000
2023-05-06T00:57:00.304Z,0.000000
2023-05-06T00:58:00.349Z,0.000000
2023-05-06T00:59:00.273Z,0.000000
2023-05-06T01:00:03.212Z,0.000000
2023-05-06T01:01:00.331Z,0.000000
2023-05-06T01:02:00.400Z,0.000000
2023-05-06T01:03:00.551Z,0.000000
2023-05-06T01:04:00.543Z,0.000000
2023-05-06T01:05:03.123Z,0.000000
2023-05-06T01:06:00.429Z,0.000000
2023-05-06T01:07:00.358Z,0.000000
2023-05-06T01:08:00.449Z,0.000000
2023-05-06T01:09:00.380Z,0.000000
2023-05-06T01:10:03.223Z,0.000000
2023-05-06T01:11:00.393Z,0.000000
2023-05-06T01:12:00.453Z,0.000000
2023-05-06T01:13:00.408Z,0.000000
2023-05-06T01:14:00.465Z,0.000000
2023-05-06T01:15:03.128Z,0.000000
2023-05-06T01:16:00.482Z,0.000000
2023-05-06T01:17:00.419Z,0.000000
2023-05-06T01:18:00.516Z,0.000000
2023-05-06T01:19:00.403Z,0.000000
2023-05-06T01:20:03.124Z,0.000000
2023-05-06T01:21:00.462Z,0.000000
2023-05-06T01:22:00.506Z,0.000000
2023-05-06T01:23:00.432Z,0.000000
2023-05-06T01:24:00.523Z,0.000000
2023-05-06T01:25:02.919Z,0.000000
2023-05-06T01:26:00.515Z,0.000000
2023-05-06T01:27:00.492Z,0.000000
2023-05-06T01:28:00.550Z,0.000000
2023-05-06T01:29:00.450Z,0.000000
2023-05-06T01:30:03.342Z,0.000000
2023-05-06T01:31:00.497Z,0.000000
2023-05-06T01:32:00.544Z,0.000000
2023-05-06T01:33:00.587Z,0.000000
2023-05-06T01:34:00.555Z,0.000000
2023-05-06T01:35:03.015Z,0.000000
2023-05-06T01:36:00.582Z,0.000000
2023-05-06T01:37:00.511Z,0.000000
2023-05-06T01:38:00.598Z,0.000000
2023-05-06T01:39:00.716Z,0.000000
2023-05-06T01:40:04.510Z,0.000000
2023-05-06T01:41:00.548Z,0.000000
2023-05-06T01:42:00.593Z,0.000000
2023-05-06T01:43:00.561Z,0.000000
2023-05-06T01:44:00.613Z,0.000000
2023-05-06T01:45:02.979Z,0.000000
2023-05-06T01:46:00.670Z,0.000000
2023-05-06T01:47:00.543Z,0.000000
2023-05-06T01:48:00.642Z,0.000000
2023-05-06T01:49:00.558Z,0.000000
2023-05-06T01:50:03.777Z,0.000000
2023-05-06T01:51:00.598Z,0.000000
2023-05-06T01:52:00.646Z,0.000000
2023-05-06T01:53:00.588Z,0.000000
2023-05-06T01:54:00.682Z,0.000000
2023-05-06T01:55:02.926Z,0.000000
2023-05-06T01:56:00.733Z,0.000000
2023-05-06T01:57:00.645Z,0.000000
2023-05-06T01:58:00.695Z,0.000000
2023-05-06T01:59:00.647Z,0.000000
2023-05-06T02:00:03.662Z,0.000000
2023-05-06T02:01:00.619Z,0.000000
2023-05-06T02:02:00.883Z,0.000000
2023-05-06T02:03:00.856Z,0.000000
2023-05-06T02:04:00.871Z,0.000000
2023-05-06T02:05:03.080Z,0.000000
2023-05-06T02:06:00.736Z,0.000000
2023-05-06T02:07:00.663Z,0.000000
2023-05-06T02:08:00.760Z,0.000000
2023-05-06T02:09:00.705Z,0.000000
2023-05-06T02:10:05.058Z,0.000000
2023-05-06T02:11:00.693Z,0.000000
2023-05-06T02:12:00.768Z,0.000000
2023-05-06T02:13:00.801Z,0.000000
2023-05-06T02:14:32.988Z,0.000000
2023-05-06T02:15:05.407Z,0.000000
2023-05-06T02:16:00.835Z,0.000000
2023-05-06T02:17:00.706Z,0.000000
2023-05-06T02:18:00.822Z,0.000000
2023-05-06T02:19:00.724Z,0.000000
2023-05-06T02:20:03.827Z,0.000000
2023-05-06T02:21:00.763Z,0.000000
2023-05-06T02:22:00.831Z,0.000000
2023-05-06T02:23:00.754Z,0.000000
2023-05-06T02:24:00.845Z,0.000000
2023-05-06T02:25:03.257Z,0.000000
2023-05-06T02:26:00.841Z,0.000000
2023-05-06T02:27:00.763Z,0.000000
2023-05-06T02:28:00.848Z,0.000000
2023-05-06T02:29:00.787Z,0.000000
2023-05-06T02:30:03.780Z,0.000000
2023-05-06T02:31:00.801Z,0.000000
2023-05-06T02:32:01.042Z,0.000000
2023-05-06T02:33:00.850Z,0.000000
2023-05-06T02:34:00.880Z,0.000000
2023-05-06T02:35:04.028Z,0.000000
2023-05-06T02:36:00.923Z,0.000000
2023-05-06T02:37:00.832Z,0.000000
2023-05-06T02:38:00.939Z,0.000000
2023-05-06T02:39:00.876Z,0.000000
2023-05-06T02:40:03.641Z,0.000000
2023-05-06T02:41:00.880Z,0.000000
2023-05-06T02:42:00.955Z,0.000000
2023-05-06T02:43:00.957Z,0.000000
2023-05-06T02:44:00.992Z,0.000000
2023-05-06T02:45:05.008Z,0.000000
2023-05-06T02:46:01.031Z,0.000000
2023-05-06T02:47:00.916Z,0.000000
2023-05-06T02:48:01.079Z,0.000000
2023-05-06T02:49:00.913Z,0.000000
2023-05-06T02:50:03.865Z,0.000000
2023-05-06T02:51:00.913Z,0.000000
2023-05-06T02:52:00.981Z,0.000000
2023-05-06T02:53:00.918Z,0.000000
2023-05-06T02:54:01.006Z,0.000000
2023-05-06T02:55:03.364Z,0.000000
2023-05-06T02:56:01.031Z,0.000000
2023-05-06T02:57:00.974Z,0.000000
2023-05-06T02:58:01.021Z,0.000000
2023-05-06T02:59:00.961Z,0.000000
2023-05-06T03:00:04.422Z,0.000000
2023-05-06T03:01:01.029Z,0.000000
2023-05-06T03:02:01.084Z,0.000000
2023-05-06T03:03:01.037Z,0.000000
2023-05-06T03:04:01.142Z,0.000000
2023-05-06T03:05:03.326Z,0.000000
2023-05-06T03:06:01.091Z,0.000000
2023-05-06T03:07:01.024Z,0.000000
2023-05-06T03:08:01.095Z,0.000000
2023-05-06T03:09:01.036Z,0.000000
2023-05-06T03:10:04.018Z,0.000000
2023-05-06T03:11:01.043Z,0.000000
2023-05-06T03:12:01.143Z,0.000000
2023-05-06T03:13:01.080Z,0.000000
2023-05-06T03:14:01.141Z,0.000000
2023-05-06T03:15:03.495Z,0.000000
2023-05-06T03:16:01.167Z,0.000000
2023-05-06T03:17:01.119Z,0.000000
2023-05-06T03:18:01.224Z,0.000000
2023-05-06T03:19:01.086Z,0.000000
2023-05-06T03:20:04.151Z,0.000000
2023-05-06T03:21:01.128Z,0.000000
2023-05-06T03:22:01.173Z,0.000000
2023-05-06T03:23:01.135Z,0.000000
2023-05-06T03:24:01.216Z,0.000000
2023-05-06T03:25:05.462Z,0.000000
2023-05-06T03:26:01.227Z,0.000000
2023-05-06T03:27:01.182Z,0.000000
2023-05-06T03:28:01.235Z,0.000000
2023-05-06T03:29:01.157Z,0.000000
2023-05-06T03:30:05.685Z,0.000000
2023-05-06T03:31:01.182Z,0.000000
2023-05-06T03:32:01.310Z,0.000000
2023-05-06T03:33:00.251Z,0.000000
2023-05-06T03:34:00.286Z,0.000000
2023-05-06T03:35:02.500Z,2.000000
2023-05-06T03:36:00.276Z,2.000000
2023-05-06T03:37:00.237Z,2.000000
2023-05-06T03:38:00.324Z,6.100000
2023-05-06T03:39:00.221Z,6.100000
2023-05-06T03:40:03.120Z,6.100000
2023-05-06T03:41:00.223Z,10.200000
2023-05-06T03:42:00.306Z,10.200000
2023-05-06T03:43:00.299Z,16.300000
2023-05-06T03:44:00.323Z,16.300000
2023-05-06T03:45:02.871Z,20.300000
2023-05-06T03:46:00.363Z,20.300000
2023-05-06T03:47:00.257Z,20.300000
2023-05-06T03:48:00.583Z,30.500000
2023-05-06T03:49:00.302Z,30.500000
2023-05-06T03:50:03.220Z,30.500000
2023-05-06T03:51:00.300Z,42.700000
2023-05-06T03:52:00.371Z,42.700000
2023-05-06T03:53:00.288Z,42.700000
2023-05-06T03:54:00.368Z,54.900000
2023-05-06T03:55:03.086Z,54.900000
2023-05-06T03:56:00.390Z,73.200000
2023-05-06T03:57:00.335Z,73.200000
2023-05-06T03:58:00.386Z,89.500000
2023-05-06T03:59:00.339Z,89.500000
2023-05-06T04:00:20.217Z,89.500000
2023-05-06T04:01:00.335Z,111.900000
2023-05-06T04:02:00.472Z,111.900000
2023-05-06T04:03:00.436Z,111.900000
2023-05-06T04:04:00.490Z,136.300000
2023-05-06T04:05:02.900Z,136.300000
2023-05-06T04:06:00.476Z,168.800000
2023-05-06T04:07:00.361Z,168.800000
2023-05-06T04:08:00.431Z,201.400000
2023-05-06T04:09:00.373Z,201.400000
2023-05-06T04:10:05.217Z,201.400000
2023-05-06T04:11:00.392Z,242.000000
2023-05-06T04:12:00.527Z,242.000000
2023-05-06T04:13:00.399Z,242.000000
2023-05-06T04:14:00.485Z,282.700000
2023-05-06T04:15:02.946Z,282.700000
2023-05-06T04:16:00.525Z,282.700000
2023-05-06T04:17:00.440Z,331.500000
2023-05-06T04:18:00.576Z,331.500000
2023-05-06T04:19:00.449Z,374.300000
2023-05-06T04:20:03.718Z,374.300000
2023-05-06T04:21:00.470Z,408.800000
2023-05-06T04:22:00.544Z,408.800000
2023-05-06T04:23:00.469Z,408.800000
2023-05-06T04:24:00.569Z,453.600000
2023-05-06T04:25:03.673Z,453.600000
2023-05-06T04:26:00.568Z,498.300000
2023-05-06T04:27:00.508Z,498.300000
2023-05-06T04:28:00.580Z,498.300000
2023-05-06T04:29:00.515Z,567.500000
2023-05-06T04:30:03.519Z,567.500000
2023-05-06T04:31:00.524Z,624.400000
2023-05-06T04:32:00.625Z,624.400000
2023-05-06T04:33:00.588Z,624.400000
2023-05-06T04:34:00.630Z,683.400000
2023-05-06T04:35:02.972Z,683.400000
2023-05-06T04:36:00.675Z,683.400000
2023-05-06T04:37:00.556Z,736.300000
2023-05-06T04:38:00.651Z,736.300000
2023-05-06T04:39:00.586Z,779.000000
2023-05-06T04:40:03.360Z,779.000000
2023-05-06T04:41:00.606Z,842.100000
2023-05-06T04:42:00.697Z,842.100000
2023-05-06T04:43:00.598Z,878.700000
2023-05-06T04:44:00.661Z,878.700000
2023-05-06T04:45:03.119Z,878.700000
2023-05-06T04:46:00.681Z,1015.000000
2023-05-06T04:47:00.623Z,1015.000000
2023-05-06T04:48:00.739Z,1015.000000
2023-05-06T04:49:00.617Z,1088.200000
2023-05-06T04:50:03.544Z,1088.200000
2023-05-06T04:51:00.649Z,1124.800000
2023-05-06T04:52:00.898Z,1124.800000
2023-05-06T04:53:00.633Z,1220.400000
2023-05-06T04:54:00.743Z,1220.400000
2023-05-06T04:55:03.062Z,1220.400000
2023-05-06T04:56:00.738Z,1303.800000
2023-05-06T04:57:00.690Z,1303.800000
2023-05-06T04:58:00.750Z,1303.800000
2023-05-06T04:59:00.676Z,1431.900000
2023-05-06T05:00:04.246Z,1431.900000
2023-05-06T05:01:00.781Z,1476.700000
2023-05-06T05:02:00.840Z,1476.700000
2023-05-06T05:03:00.873Z,1523.500000
2023-05-06T05:04:00.816Z,1523.500000
2023-05-06T05:05:03.156Z,1523.500000
2023-05-06T05:06:00.862Z,1617.000000
2023-05-06T05:07:00.766Z,1617.000000
2023-05-06T05:08:00.850Z,1617.000000
2023-05-06T05:09:00.788Z,1794.000000
2023-05-06T05:10:03.905Z,1794.000000
2023-05-06T05:11:00.776Z,1794.000000
2023-05-06T05:12:00.973Z,1786.000000
2023-05-06T05:13:00.807Z,1786.000000
2023-05-06T05:14:02.192Z,1940.000000
2023-05-06T05:15:03.576Z,1940.000000
2023-05-06T05:16:00.891Z,2063.000000
2023-05-06T05:17:00.835Z,2063.000000
2023-05-06T05:18:00.978Z,2063.000000
2023-05-06T05:19:03.025Z,2211.000000
2023-05-06T05:20:05.257Z,2211.000000
2023-05-06T05:21:00.867Z,2211.000000
2023-05-06T05:22:00.928Z,2362.000000
2023-05-06T05:23:00.846Z,2362.000000
2023-05-06T05:24:00.982Z,2518.000000
2023-05-06T05:25:03.939Z,2518.000000
2023-05-06T05:26:00.942Z,2534.000000
2023-05-06T05:27:00.879Z,2534.000000
2023-05-06T05:28:00.947Z,2534.000000
2023-05-06T05:29:00.905Z,2770.000000
2023-05-06T05:30:04.528Z,2770.000000
2023-05-06T05:31:00.928Z,2770.000000
2023-05-06T05:32:01.007Z,3033.000000
2023-05-06T05:33:01.005Z,3033.000000
2023-05-06T05:34:00.988Z,3033.000000
2023-05-06T05:35:03.361Z,3185.000000
2023-05-06T05:36:01.047Z,3185.000000
2023-05-06T05:37:00.958Z,3291.000000
2023-05-06T05:38:01.029Z,3291.000000
2023-05-06T05:39:00.979Z,3281.000000
2023-05-06T05:40:04.317Z,3281.000000
2023-05-06T05:41:00.974Z,3281.000000
2023-05-06T05:42:01.080Z,3454.000000
2023-05-06T05:43:00.976Z,3454.000000
2023-05-06T05:44:01.076Z,3454.000000
2023-05-06T05:45:03.551Z,3686.000000
2023-05-06T05:46:01.151Z,3686.000000
2023-05-06T05:47:01.022Z,3682.000000
2023-05-06T05:48:01.145Z,3682.000000
2023-05-06T05:49:01.034Z,3846.000000
2023-05-06T05:50:04.374Z,3846.000000
2023-05-06T05:51:01.047Z,3846.000000
2023-05-06T05:52:01.119Z,3935.000000
2023-05-06T05:53:01.073Z,3935.000000
2023-05-06T05:54:01.228Z,3935.000000
2023-05-06T05:55:03.412Z,3984.000000
2023-05-06T05:56:01.159Z,3984.000000
2023-05-06T05:57:01.100Z,4000.000000
2023-05-06T05:58:01.280Z,4000.000000
2023-05-06T05:59:01.101Z,4000.000000
2023-05-06T06:00:04.335Z,4219.000000
2023-05-06T06:01:01.110Z,4219.000000
2023-05-06T06:02:01.201Z,4561.000000
2023-05-06T06:03:01.220Z,4561.000000
2023-05-06T06:04:01.489Z,4921.000000
2023-05-06T06:05:03.733Z,4921.000000
2023-05-06T06:06:01.265Z,4921.000000
2023-05-06T06:07:01.148Z,4880.000000
2023-05-06T06:08:03.677Z,4880.000000
2023-05-06T06:09:01.185Z,5232.000000
2023-05-06T06:10:04.141Z,5232.000000
2023-05-06T06:11:01.170Z,5232.000000
2023-05-06T06:12:00.309Z,5383.000000
2023-05-06T06:13:00.284Z,5383.000000
2023-05-06T06:14:00.275Z,5133.000000
2023-05-06T06:15:03.195Z,5133.000000
2023-05-06T06:16:00.300Z,5133.000000
2023-05-06T06:17:00.229Z,5320.000000
2023-05-06T06:18:00.356Z,5320.000000
2023-05-06T06:19:00.218Z,5320.000000
2023-05-06T06:20:03.181Z,5510.000000
2023-05-06T06:21:00.275Z,5510.000000
2023-05-06T06:22:00.350Z,4947.000000
2023-05-06T06:23:00.253Z,4947.000000
2023-05-06T06:24:00.365Z,4947.000000
2023-05-06T06:25:02.867Z,5194.000000
2023-05-06T06:26:00.322Z,5194.000000
2023-05-06T06:27:00.299Z,5194.000000
2023-05-06T06:28:00.385Z,5838.000000
2023-05-06T06:29:00.299Z,5838.000000
2023-05-06T06:30:05.287Z,5818.000000
2023-05-06T06:31:00.320Z,5818.000000
2023-05-06T06:32:00.401Z,5818.000000
2023-05-06T06:33:00.446Z,5747.000000
2023-05-06T06:34:00.416Z,5747.000000
2023-05-06T06:35:02.908Z,5723.000000
2023-05-06T06:36:00.464Z,5723.000000
2023-05-06T06:37:00.355Z,5723.000000
2023-05-06T06:38:00.440Z,5240.000000
2023-05-06T06:39:00.360Z,5240.000000
2023-05-06T06:40:03.355Z,5295.000000
2023-05-06T06:41:00.393Z,5295.000000
2023-05-06T06:42:00.519Z,5295.000000
2023-05-06T06:43:00.379Z,5284.000000
2023-05-06T06:44:00.634Z,5284.000000
2023-05-06T06:45:02.769Z,5710.000000
2023-05-06T06:46:00.527Z,5710.000000
2023-05-06T06:47:00.415Z,5710.000000
2023-05-06T06:48:00.592Z,6053.000000
2023-05-06T06:49:00.418Z,6053.000000
2023-05-06T06:50:03.784Z,6053.000000
2023-05-06T06:51:00.471Z,5910.000000
2023-05-06T06:52:00.515Z,5910.000000
2023-05-06T06:53:00.472Z,5810.000000
2023-05-06T06:54:00.561Z,5810.000000
2023-05-06T06:55:02.884Z,5810.000000
2023-05-06T06:56:00.559Z,5776.000000
2023-05-06T06:57:00.498Z,5776.000000
2023-05-06T06:58:00.543Z,5847.000000
2023-05-06T06:59:00.490Z,5847.000000
2023-05-06T07:00:03.558Z,5847.000000
2023-05-06T07:01:00.503Z,5974.000000
2023-05-06T07:02:00.569Z,5974.000000
2023-05-06T07:03:00.607Z,5973.000000
2023-05-06T07:04:00.619Z,5973.000000
2023-05-06T07:05:02.916Z,5973.000000
2023-05-06T07:06:00.639Z,6034.000000
2023-05-06T07:07:00.556Z,6034.000000
2023-05-06T07:08:00.591Z,5967.000000
2023-05-06T07:09:00.541Z,5967.000000
2023-05-06T07:10:04.136Z,5967.000000
2023-05-06T07:11:00.577Z,5847.000000
2023-05-06T07:12:00.656Z,5847.000000
2023-05-06T07:13:00.600Z,5847.000000
2023-05-06T07:14:00.657Z,5919.000000
2023-05-06T07:15:03.210Z,5919.000000
2023-05-06T07:16:00.701Z,5971.000000
2023-05-06T07:17:00.674Z,5971.000000
2023-05-06T07:18:00.766Z,5907.000000
2023-05-06T07:19:00.621Z,5907.000000
2023-05-06T07:20:05.189Z,5877.000000
2023-05-06T07:21:00.665Z,5877.000000
2023-05-06T07:22:00.711Z,5877.000000
2023-05-06T07:23:00.647Z,5838.000000
2023-05-06T07:24:00.794Z,5838.000000
2023-05-06T07:25:03.536Z,5838.000000
2023-05-06T07:26:00.770Z,5818.000000
2023-05-06T07:27:00.733Z,5818.000000
2023-05-06T07:28:00.745Z,5940.000000
2023-05-06T07:29:00.692Z,5940.000000
2023-05-06T07:30:03.721Z,5951.000000
2023-05-06T07:31:00.749Z,5951.000000
2023-05-06T07:32:00.817Z,5951.000000
2023-05-06T07:33:00.839Z,5968.000000
2023-05-06T07:34:00.788Z,5968.000000
2023-05-06T07:35:03.352Z,5968.000000
2023-05-06T07:36:00.843Z,5955.000000
2023-05-06T07:37:00.738Z,5955.000000
2023-05-06T07:38:00.821Z,5955.000000
2023-05-06T07:39:00.780Z,5966.000000
2023-05-06T07:40:04.084Z,5966.000000
2023-05-06T07:41:00.774Z,6012.000000
2023-05-06T07:42:04.066Z,6012.000000
2023-05-06T07:43:00.786Z,6012.000000
2023-05-06T07:44:00.879Z,6012.000000
2023-05-06T07:45:03.292Z,6012.000000
2023-05-06T07:46:00.884Z,6012.000000
2023-05-06T07:47:00.915Z,6012.000000
2023-05-06T07:51:00.875Z,6104.000000
2023-05-06T07:52:00.926Z,6104.000000
2023-05-06T07:53:00.866Z,6087.000000
2023-05-06T07:54:00.958Z,6087.000000
2023-05-06T07:55:03.387Z,6087.000000
2023-05-06T07:56:00.947Z,5971.000000
2023-05-06T07:57:00.882Z,5971.000000
2023-05-06T07:58:00.962Z,6036.000000
2023-05-06T07:59:00.881Z,6036.000000
2023-05-06T08:00:04.277Z,6036.000000
2023-05-06T08:01:00.918Z,6168.000000
2023-05-06T08:02:00.999Z,6168.000000
2023-05-06T08:03:01.027Z,6191.000000
2023-05-06T08:04:01.093Z,6191.000000
2023-05-06T08:05:04.214Z,6191.000000
2023-05-06T08:06:01.037Z,6220.000000
2023-05-06T08:07:00.950Z,6220.000000
2023-05-06T08:08:01.049Z,6220.000000
2023-05-06T08:09:00.999Z,6204.000000
2023-05-06T08:10:05.223Z,6204.000000
2023-05-06T08:11:00.974Z,6245.000000
2023-05-06T08:12:01.061Z,6245.000000
2023-05-06T08:13:00.994Z,6245.000000
2023-05-06T08:14:01.055Z,6196.000000
2023-05-06T08:15:03.730Z,6196.000000
2023-05-06T08:16:01.096Z,6124.000000
2023-05-06T08:17:01.014Z,6124.000000
2023-05-06T08:18:10.375Z,6124.000000
2023-05-06T08:19:01.007Z,6198.000000
2023-05-06T08:20:04.213Z,6198.000000
2023-05-06T08:21:01.049Z,6369.000000
2023-05-06T08:22:01.110Z,6369.000000
2023-05-06T08:23:01.074Z,6369.000000
2023-05-06T08:24:01.141Z,6366.000000
2023-05-06T08:25:03.548Z,6366.000000
2023-05-06T08:26:01.140Z,6338.000000
2023-05-06T08:27:01.073Z,6338.000000
2023-05-06T08:28:01.133Z,6338.000000
2023-05-06T08:29:01.075Z,6478.000000
2023-05-06T08:30:04.222Z,6478.000000
2023-05-06T08:31:01.084Z,6478.000000
2023-05-06T08:32:01.269Z,6501.000000
2023-05-06T08:33:01.145Z,6501.000000
2023-05-06T08:34:01.183Z,6634.000000
2023-05-06T08:35:03.884Z,6634.000000
2023-05-06T08:36:01.267Z,6634.000000
2023-05-06T08:37:01.126Z,6799.000000
2023-05-06T08:38:01.212Z,6799.000000
2023-05-06T08:39:01.161Z,6220.000000
2023-05-06T08:40:04.147Z,6220.000000
2023-05-06T08:41:01.169Z,7050.000000
2023-05-06T08:42:01.284Z,7050.000000
2023-05-06T08:43:01.184Z,7050.000000
2023-05-06T08:44:01.276Z,6184.000000
2023-05-06T08:45:02.924Z,6184.000000
2023-05-06T08:46:00.301Z,6819.000000
2023-05-06T08:47:00.214Z,6819.000000
2023-05-06T08:48:00.534Z,6819.000000
2023-05-06T08:49:00.226Z,7186.000000
2023-05-06T08:50:03.041Z,7186.000000
2023-05-06T08:51:00.252Z,7186.000000
2023-05-06T08:52:00.323Z,7415.000000
2023-05-06T08:53:00.237Z,7415.000000
2023-05-06T08:54:00.375Z,7648.000000
2023-05-06T08:55:02.924Z,7648.000000
2023-05-06T08:56:00.339Z,7648.000000
2023-05-06T08:57:00.287Z,7828.000000
2023-05-06T08:58:00.341Z,7828.000000
2023-05-06T08:59:00.270Z,7828.000000
2023-05-06T09:00:04.221Z,7227.000000
2023-05-06T09:01:00.386Z,7227.000000
2023-05-06T09:02:00.451Z,5791.000000
2023-05-06T09:03:00.472Z,5791.000000
2023-05-06T09:04:00.441Z,5791.000000
2023-05-06T09:05:03.154Z,5853.000000
2023-05-06T09:06:07.277Z,5853.000000
2023-05-06T09:07:00.379Z,6620.000000
2023-05-06T09:08:00.478Z,6620.000000
2023-05-06T09:09:00.392Z,6258.000000
2023-05-06T09:10:03.711Z,6258.000000
2023-05-06T09:11:00.399Z,6258.000000
2023-05-06T09:12:00.458Z,6998.000000
2023-05-06T09:13:00.499Z,6998.000000
2023-05-06T09:14:00.476Z,6998.000000
2023-05-06T09:15:03.002Z,6762.000000
2023-05-06T09:16:00.490Z,6762.000000
2023-05-06T09:17:00.442Z,7005.000000
2023-05-06T09:18:00.505Z,7005.000000
2023-05-06T09:19:00.433Z,7031.000000
2023-05-06T09:20:05.243Z,7031.000000
2023-05-06T09:21:01.011Z,7031.000000
2023-05-06T09:22:00.502Z,7551.000000
2023-05-06T09:23:00.456Z,7551.000000
2023-05-06T09:24:00.549Z,7551.000000
2023-05-06T09:27:00.469Z,7082.000000
2023-05-06T09:28:00.534Z,7082.000000
2023-05-06T09:29:00.512Z,7082.000000
2023-05-06T09:30:03.872Z,6493.000000
2023-05-06T09:31:00.494Z,6493.000000
2023-05-06T09:32:00.554Z,6571.000000
2023-05-06T09:33:00.534Z,6571.000000
2023-05-06T09:34:00.593Z,6279.000000
2023-05-06T09:35:03.074Z,6279.000000
2023-05-06T09:36:00.612Z,6279.000000
2023-05-06T09:37:00.510Z,6969.000000
2023-05-06T09:38:00.601Z,6969.000000
2023-05-06T09:39:00.533Z,7025.000000
2023-05-06T09:40:04.483Z,7025.000000
2023-05-06T09:41:00.548Z,6856.000000
2023-05-06T09:42:00.629Z,6856.000000
2023-05-06T09:43:00.556Z,6856.000000
2023-05-06T09:44:00.646Z,6902.000000
2023-05-06T09:45:03.106Z,6902.000000
2023-05-06T09:46:00.737Z,6902.000000
2023-05-06T09:47:00.581Z,6964.000000
2023-05-06T09:48:00.721Z,6964.000000
2023-05-06T09:49:00.606Z,6964.000000
2023-05-06T09:50:04.072Z,7008.000000
2023-05-06T09:51:01.357Z,7008.000000
2023-05-06T09:52:00.868Z,6966.000000
2023-05-06T09:53:00.609Z,6966.000000
2023-05-06T09:54:00.676Z,6966.000000
2023-05-06T09:55:04.300Z,6895.000000
2023-05-06T09:56:00.747Z,6895.000000
2023-05-06T09:57:01.162Z,6895.000000
2023-05-06T09:58:00.741Z,6997.000000
2023-05-06T09:59:00.646Z,6997.000000
2023-05-06T10:00:04.085Z,6998.000000
2023-05-06T10:01:00.699Z,6998.000000
2023-05-06T10:02:00.867Z,7019.000000
2023-05-06T10:03:00.887Z,7019.000000
2023-05-06T10:04:01.008Z,7019.000000
2023-05-06T10:05:05.017Z,7044.000000
2023-05-06T10:06:00.809Z,7044.000000
2023-05-06T10:07:00.730Z,7097.000000
2023-05-06T10:08:00.789Z,7097.000000
2023-05-06T10:09:00.764Z,7097.000000
2023-05-06T10:10:04.470Z,7024.000000
2023-05-06T10:11:00.771Z,7024.000000
2023-05-06T10:12:08.092Z,6997.000000
2023-05-06T10:13:00.889Z,6997.000000
2023-05-06T10:14:00.874Z,6997.000000
2023-05-06T10:15:03.664Z,6555.000000
2023-05-06T10:16:00.964Z,6555.000000
2023-05-06T10:17:00.817Z,6555.000000
2023-05-06T10:18:00.928Z,6941.000000
2023-05-06T10:19:00.830Z,6941.000000
2023-05-06T10:20:05.061Z,7003.000000
2023-05-06T10:21:00.857Z,7003.000000
2023-05-06T10:22:00.956Z,7003.000000
2023-05-06T10:23:00.844Z,6968.000000
2023-05-06T10:24:00.946Z,6968.000000
2023-05-06T10:25:03.387Z,6999.000000
2023-05-06T10:26:01.995Z,6999.000000
2023-05-06T10:27:00.868Z,6977.000000
2023-05-06T10:28:00.993Z,6977.000000
2023-05-06T10:29:00.876Z,6977.000000
2023-05-06T10:30:05.296Z,6988.000000
2023-05-06T10:31:00.915Z,6988.000000
2023-05-06T10:32:01.014Z,6988.000000
2023-05-06T10:33:00.964Z,6949.000000
2023-05-06T10:34:01.236Z,6949.000000
2023-05-06T10:35:03.429Z,6916.000000
2023-05-06T10:36:02.111Z,6916.000000
2023-05-06T10:37:00.949Z,6950.000000
2023-05-06T10:38:01.035Z,6950.000000
2023-05-06T10:39:00.975Z,6950.000000
2023-05-06T10:40:04.117Z,6968.000000
2023-05-06T10:41:01.022Z,6968.000000
2023-05-06T10:42:08.221Z,6968.000000
2023-05-06T10:43:00.989Z,6692.000000
2023-05-06T10:44:01.125Z,6692.000000
2023-05-06T10:45:04.224Z,6692.000000
2023-05-06T10:46:01.312Z,6594.000000
2023-05-06T10:47:01.007Z,6594.000000
2023-05-06T10:48:01.158Z,6537.000000
2023-05-06T10:49:01.003Z,6537.000000
2023-05-06T10:50:05.579Z,6535.000000
2023-05-06T10:51:01.042Z,6535.000000
2023-05-06T10:52:04.223Z,6535.000000
2023-05-06T10:53:01.049Z,6541.000000
2023-05-06T10:54:02.146Z,6541.000000
2023-05-06T10:55:03.689Z,6362.000000
2023-05-06T10:56:01.168Z,6362.000000
2023-05-06T10:57:01.082Z,6362.000000
2023-05-06T10:58:02.179Z,6501.000000
2023-05-06T10:59:01.064Z,6501.000000
2023-05-06T11:00:05.606Z,6659.000000
2023-05-06T11:01:01.132Z,6659.000000
2023-05-06T11:02:01.263Z,6659.000000
2023-05-06T11:03:01.159Z,4715.000000
2023-05-06T11:04:04.347Z,4715.000000
2023-05-06T11:05:03.639Z,4715.000000
2023-05-06T11:06:02.384Z,6505.000000
2023-05-06T11:07:01.136Z,6505.000000
2023-05-06T11:08:02.247Z,7133.000000
2023-05-06T11:09:01.168Z,7133.000000
2023-05-06T11:10:05.706Z,7221.000000
2023-05-06T11:11:01.154Z,7221.000000
2023-05-06T11:12:02.301Z,7221.000000